Time;durP1;ratioP1;P1;durP2;ratioP2;P2;SDS_P1;SDS_P2;PMS_P1;PMS_P2;Temp;Humidity;BMP_temperature;BMP_pressure;BME280_temperature;BME280_humidity;BME280_pressure;Samples;Min_cycle;Max_cycle;Signal;HPM_P1;HPM_P2
2022/04/11 00:02:03;;;;;;;0.60;0.10;;;6.70;1.00;;;;;;5052456;28;20452;-74
2022/04/11 00:04:33;;;;;;;0.60;0.10;;;6.70;1.00;;;;;;5053583;28;20514;-74
2022/04/11 00:07:01;;;;;;;0.60;0.10;;;6.60;1.00;;;;;;5056117;28;20505;-77
2022/04/11 00:09:29;;;;;;;0.70;0.43;;;6.60;1.00;;;;;;5056106;28;20910;-76
2022/04/11 00:11:57;;;;;;;0.60;0.10;;;6.60;1.00;;;;;;5055134;28;20863;-76
2022/04/11 00:14:26;;;;;;;0.60;0.10;;;;;;;;;;5056466;28;20453;-76
2022/04/11 00:16:53;;;;;;;0.60;0.10;;;6.50;1.00;;;;;;5055102;28;20494;-77
2022/04/11 00:19:21;;;;;;;0.60;0.10;;;6.40;1.00;;;;;;5053260;28;20448;-75
2022/04/11 00:21:51;;;;;;;0.60;0.10;;;6.40;1.00;;;;;;5054017;28;20952;-75
2022/04/11 00:24:19;;;;;;;0.60;0.10;;;6.40;1.00;;;;;;5053601;28;20942;-75
2022/04/11 00:26:46;;;;;;;0.60;0.10;;;6.30;1.00;;;;;;5052384;28;20933;-75
2022/04/11 00:29:22;;;;;;;0.60;0.20;;;6.30;1.00;;;;;;5053387;28;20448;-77
2022/04/11 00:31:51;;;;;;;0.60;0.10;;;;;;;;;;5053479;28;20501;-75
2022/04/11 00:34:19;;;;;;;0.60;0.10;;;6.30;1.00;;;;;;5052569;28;20445;-75
2022/04/11 00:36:47;;;;;;;0.60;0.10;;;6.30;1.00;;;;;;5053517;28;20460;-75
2022/04/11 00:39:16;;;;;;;0.60;0.10;;;6.30;1.00;;;;;;5055063;28;20455;-75
2022/04/11 00:41:44;;;;;;;0.60;0.10;;;6.30;1.00;;;;;;5053542;28;20536;-76
2022/04/11 00:44:12;;;;;;;0.60;0.10;;;6.30;1.00;;;;;;5051329;28;20453;-76
2022/04/11 00:46:40;;;;;;;0.60;0.10;;;6.30;1.00;;;;;;5049661;28;20485;-73
2022/04/11 00:49:09;;;;;;;0.60;0.10;;;6.20;1.00;;;;;;5049522;28;20447;-76
2022/04/11 00:51:37;;;;;;;0.60;0.10;;;;;;;;;;5052042;28;20493;-76
2022/04/11 00:54:06;;;;;;;0.60;0.10;;;6.30;1.00;;;;;;5051761;28;20751;-76
2022/04/11 00:56:36;;;;;;;0.60;0.20;;;6.20;1.00;;;;;;5051619;28;20474;-76
2022/04/11 00:59:04;;;;;;;0.60;0.10;;;6.20;1.00;;;;;;5049496;28;20451;-76
2022/04/11 01:01:32;;;;;;;0.60;0.10;;;6.20;1.00;;;;;;5050192;28;20536;-75
2022/04/11 01:04:00;;;;;;;0.60;0.10;;;6.10;1.00;;;;;;5051245;28;21227;-76
2022/04/11 01:06:28;;;;;;;0.60;0.10;;;6.10;1.00;;;;;;5049865;28;20483;-77
2022/04/11 01:08:56;;;;;;;0.60;0.10;;;6.10;1.00;;;;;;5051329;28;20522;-76
2022/04/11 01:11:24;;;;;;;0.60;0.10;;;6.10;1.00;;;;;;5051493;28;20448;-76
2022/04/11 01:13:53;;;;;;;0.60;0.10;;;6.00;1.00;;;;;;5052088;28;20455;-74
2022/04/11 01:16:29;;;;;;;0.70;0.40;;;6.00;1.00;;;;;;5050600;28;20467;-76
2022/04/11 01:18:57;;;;;;;0.60;0.10;;;5.90;1.00;;;;;;5051374;28;20455;-77
2022/04/11 01:21:30;;;;;;;0.60;0.10;;;5.90;1.00;;;;;;5052508;28;20487;-75
2022/04/11 01:23:59;;;;;;;0.60;0.10;;;;;;;;;;5051420;28;20455;-76
2022/04/11 01:26:27;;;;;;;0.53;0.10;;;5.80;1.00;;;;;;5051426;28;20470;-76
2022/04/11 01:28:56;;;;;;;0.57;0.10;;;5.70;1.00;;;;;;5051300;28;20486;-76
2022/04/11 01:31:25;;;;;;;0.60;0.10;;;;;;;;;;5050858;28;20482;-73
2022/04/11 01:33:53;;;;;;;0.60;0.10;;;5.70;1.00;;;;;;5050829;28;20505;-75
2022/04/11 01:36:21;;;;;;;0.60;0.10;;;5.70;1.00;;;;;;5050778;28;20467;-74
2022/04/11 01:38:50;;;;;;;0.60;0.17;;;5.70;1.00;;;;;;5051206;28;20961;-75
2022/04/11 01:41:19;;;;;;;0.60;0.10;;;5.70;1.00;;;;;;5051160;28;20928;-75
2022/04/11 01:43:48;;;;;;;0.60;0.20;;;5.70;1.00;;;;;;5032276;28;20467;-74
2022/04/11 01:46:16;;;;;;;0.60;0.10;;;5.60;1.00;;;;;;5050745;28;20471;-75
2022/04/11 01:48:44;;;;;;;0.60;0.10;;;5.60;1.00;;;;;;5051485;28;21060;-74
2022/04/11 01:51:13;;;;;;;0.70;0.40;;;5.70;1.00;;;;;;5055806;28;20451;-76
2022/04/11 01:53:41;;;;;;;0.60;0.17;;;5.70;1.00;;;;;;5063984;28;20502;-75
2022/04/11 01:56:12;;;;;;;0.60;0.10;;;5.70;1.00;;;;;;5083782;28;20484;-75
2022/04/11 01:58:40;;;;;;;0.60;0.10;;;5.60;1.00;;;;;;5064279;28;20443;-76
2022/04/11 02:01:08;;;;;;;0.60;0.10;;;5.70;1.00;;;;;;5061103;28;20450;-75
2022/04/11 02:03:36;;;;;;;0.70;0.50;;;5.60;1.00;;;;;;5055171;28;20902;-76
2022/04/11 02:06:04;;;;;;;0.60;0.10;;;5.70;1.00;;;;;;5054374;28;20489;-73
2022/04/11 02:08:32;;;;;;;0.60;0.10;;;5.70;1.00;;;;;;5055252;28;20490;-75
2022/04/11 02:11:00;;;;;;;0.60;0.10;;;5.70;1.00;;;;;;5054372;28;20447;-77
2022/04/11 02:13:29;;;;;;;0.60;0.10;;;5.70;1.00;;;;;;5054945;28;20447;-75
2022/04/11 02:15:59;;;;;;;0.60;0.10;;;;;;;;;;5038595;28;20471;-76
2022/04/11 02:18:27;;;;;;;0.60;0.10;;;5.70;1.00;;;;;;5054595;28;20452;-76
2022/04/11 02:20:54;;;;;;;0.60;0.10;;;5.70;1.00;;;;;;5055685;28;20448;-76
2022/04/11 02:23:23;;;;;;;0.60;0.20;;;5.70;1.00;;;;;;5056244;28;20447;-74
2022/04/11 02:25:51;;;;;;;0.60;0.10;;;5.70;1.00;;;;;;5054870;28;20535;-77
2022/04/11 02:28:20;;;;;;;0.60;0.10;;;5.70;1.00;;;;;;5054174;28;20480;-75
2022/04/11 02:30:49;;;;;;;0.60;0.10;;;5.60;1.00;;;;;;5054842;28;20455;-77
2022/04/11 02:33:17;;;;;;;0.60;0.10;;;5.60;1.00;;;;;;5056672;28;20444;-76
2022/04/11 02:35:46;;;;;;;0.60;0.23;;;;;;;;;;5056831;28;20471;-76
2022/04/11 02:38:14;;;;;;;0.60;0.10;;;5.50;1.00;;;;;;5054813;28;20444;-76
2022/04/11 02:40:42;;;;;;;0.60;0.10;;;5.50;1.00;;;;;;5054470;28;20800;-77
2022/04/11 02:43:10;;;;;;;0.60;0.10;;;5.50;1.00;;;;;;5054328;28;20450;-76
2022/04/11 02:45:38;;;;;;;0.60;0.10;;;5.50;1.00;;;;;;5053632;28;20476;-75
2022/04/11 02:48:08;;;;;;;0.60;0.10;;;;;;;;;;5052772;28;20965;-75
2022/04/11 02:50:36;;;;;;;0.57;0.10;;;;;;;;;;5054126;28;20448;-76
2022/04/11 02:53:05;;;;;;;0.60;0.10;;;;;;;;;;5054000;28;20454;-76
2022/04/11 02:55:33;;;;;;;0.60;0.10;;;5.50;1.00;;;;;;5053848;28;20454;-75
2022/04/11 02:58:01;;;;;;;0.60;0.10;;;;;;;;;;5053431;28;20445;-77
2022/04/11 03:00:29;;;;;;;0.60;0.10;;;5.50;1.00;;;;;;5055344;28;20852;-75
2022/04/11 03:02:57;;;;;;;0.60;0.10;;;5.60;1.00;;;;;;5054630;28;20861;-74
2022/04/11 03:05:26;;;;;;;0.60;0.10;;;5.50;1.00;;;;;;5053796;28;20446;-74
2022/04/11 03:07:54;;;;;;;0.60;0.30;;;5.50;1.00;;;;;;5053108;28;20493;-75
2022/04/11 03:10:22;;;;;;;0.70;0.30;;;5.50;1.00;;;;;;5054770;28;20562;-74
2022/04/11 03:12:52;;;;;;;0.60;0.10;;;5.50;1.00;;;;;;5055380;28;20455;-74
2022/04/11 03:15:21;;;;;;;0.60;0.10;;;5.40;1.00;;;;;;5064212;28;20455;-74
2022/04/11 03:17:48;;;;;;;0.60;0.10;;;5.40;1.00;;;;;;5068403;28;20482;-71
2022/04/11 03:20:16;;;;;;;0.77;0.77;;;5.30;1.00;;;;;;5069383;28;20525;-74
2022/04/11 03:22:45;;;;;;;0.50;0.10;;;5.30;1.00;;;;;;5068879;28;20440;-74
2022/04/11 03:25:13;;;;;;;0.60;0.10;;;5.30;1.00;;;;;;5056961;28;20490;-75
2022/04/11 03:27:41;;;;;;;0.60;0.10;;;5.30;1.00;;;;;;5053479;28;20469;-74
2022/04/11 03:30:10;;;;;;;0.60;0.10;;;5.30;1.00;;;;;;5053691;28;20510;-75
2022/04/11 03:32:38;;;;;;;0.50;0.10;;;5.20;1.00;;;;;;5053427;28;20454;-77
2022/04/11 03:35:07;;;;;;;0.60;0.10;;;5.30;1.00;;;;;;5053199;28;20752;-75
2022/04/11 03:37:35;;;;;;;0.60;0.10;;;5.30;1.00;;;;;;5053103;28;20463;-74
2022/04/11 03:40:06;;;;;;;0.60;0.20;;;5.30;1.00;;;;;;5053186;28;20450;-75
2022/04/11 03:42:34;;;;;;;0.60;0.10;;;5.30;1.00;;;;;;5053444;28;20455;-75
2022/04/11 03:45:02;;;;;;;0.60;0.10;;;5.30;1.00;;;;;;5052870;28;20562;-75
2022/04/11 03:47:30;;;;;;;0.60;0.10;;;5.30;1.00;;;;;;5055770;28;20511;-74
2022/04/11 03:49:58;;;;;;;0.60;0.10;;;5.30;1.00;;;;;;5057668;28;20497;-75
2022/04/11 03:52:26;;;;;;;0.60;0.10;;;5.30;1.00;;;;;;5055717;28;20461;-74
2022/04/11 03:54:54;;;;;;;0.60;0.10;;;5.30;1.00;;;;;;5052109;28;20931;-74
2022/04/11 03:57:23;;;;;;;0.50;0.20;;;5.30;1.00;;;;;;5052581;28;20473;-74
2022/04/11 03:59:51;;;;;;;0.60;0.10;;;5.30;1.00;;;;;;5052226;28;20949;-74
2022/04/11 04:02:19;;;;;;;0.60;0.10;;;5.30;1.00;;;;;;5052178;28;20474;-76
2022/04/11 04:04:47;;;;;;;0.60;0.10;;;5.30;1.00;;;;;;5052114;28;20482;-75
2022/04/11 04:09:44;;;;;;;0.50;0.10;;;5.20;1.00;;;;;;5073208;28;21069;-76
2022/04/11 04:12:12;;;;;;;0.50;0.10;;;;;;;;;;5076760;28;20545;-77
2022/04/11 04:14:41;;;;;;;0.60;0.10;;;5.30;1.00;;;;;;5080421;28;20448;-77
2022/04/11 04:17:09;;;;;;;0.60;0.10;;;5.20;1.00;;;;;;5080193;28;20466;-77
2022/04/11 04:19:38;;;;;;;0.50;0.10;;;5.30;1.00;;;;;;5098059;28;20480;-78
2022/04/11 04:22:06;;;;;;;0.60;0.10;;;5.30;1.00;;;;;;5098913;28;20475;-78
2022/04/11 04:24:36;;;;;;;0.60;0.10;;;5.20;1.00;;;;;;5084401;28;20555;-77
2022/04/11 04:27:05;;;;;;;0.70;0.47;;;5.20;1.00;;;;;;5103705;28;20441;-76
2022/04/11 04:29:32;;;;;;;0.60;0.10;;;5.20;1.00;;;;;;5095786;28;20463;-77
2022/04/11 04:32:02;;;;;;;0.60;0.10;;;5.20;1.00;;;;;;5095552;28;20879;-77
2022/04/11 04:34:30;;;;;;;0.60;0.10;;;5.30;1.00;;;;;;5095982;28;20457;-77
2022/04/11 04:36:58;;;;;;;0.60;0.10;;;5.30;1.00;;;;;;5101757;28;21028;-77
2022/04/11 04:39:26;;;;;;;0.60;0.10;;;5.20;1.00;;;;;;5088400;28;20474;-77
2022/04/11 04:41:54;;;;;;;0.60;0.10;;;5.20;1.00;;;;;;5075432;28;20902;-77
2022/04/11 04:44:22;;;;;;;0.60;0.10;;;5.20;1.00;;;;;;5085009;28;20537;-77
2022/04/11 04:46:50;;;;;;;1.77;1.67;;;5.20;1.00;;;;;;5089950;28;20461;-77
2022/04/11 04:49:19;;;;;;;0.50;0.10;;;5.20;1.00;;;;;;5104280;28;20469;-77
2022/04/11 04:51:47;;;;;;;0.57;0.13;;;5.20;1.00;;;;;;5091089;28;20547;-78
2022/04/11 04:54:15;;;;;;;0.60;0.10;;;5.10;1.00;;;;;;5101111;28;20514;-78
2022/04/11 04:56:43;;;;;;;0.60;0.10;;;5.10;1.00;;;;;;5080239;28;21253;-77
2022/04/11 04:59:11;;;;;;;0.60;0.10;;;5.10;1.00;;;;;;5088140;28;20457;-77
2022/04/11 05:01:39;;;;;;;0.60;0.10;;;5.10;1.00;;;;;;5108247;28;20460;-78
2022/04/11 05:04:07;;;;;;;0.60;0.10;;;;;;;;;;5101732;28;20784;-77
2022/04/11 05:06:37;;;;;;;0.60;0.10;;;5.00;1.00;;;;;;5081136;28;20457;-78
2022/04/11 05:09:05;;;;;;;0.50;0.10;;;5.10;1.00;;;;;;5090301;28;20487;-77
2022/04/11 05:11:33;;;;;;;0.60;0.10;;;5.00;1.00;;;;;;5085081;28;20519;-78
2022/04/11 05:14:00;;;;;;;0.60;0.10;;;5.10;1.00;;;;;;5097558;28;20459;-76
2022/04/11 05:16:28;;;;;;;0.60;0.10;;;5.00;1.00;;;;;;5097318;28;20460;-78
2022/04/11 05:18:57;;;;;;;1.10;1.03;;;5.10;1.00;;;;;;5094808;28;20463;-77
2022/04/11 05:21:24;;;;;;;0.60;0.10;;;5.00;1.00;;;;;;5093651;28;20451;-78
2022/04/11 05:23:54;;;;;;;0.60;0.10;;;5.00;1.00;;;;;;5094181;28;20488;-79
2022/04/11 05:26:22;;;;;;;0.60;0.20;;;5.10;1.00;;;;;;5095246;28;20785;-77
2022/04/11 05:28:50;;;;;;;0.60;0.10;;;5.10;1.00;;;;;;5097996;28;21023;-76
2022/04/11 05:31:18;;;;;;;0.60;0.10;;;5.10;1.00;;;;;;5085758;28;20477;-76
2022/04/11 05:33:46;;;;;;;0.60;0.10;;;5.10;1.00;;;;;;5081773;28;20430;-78
2022/04/11 05:36:15;;;;;;;0.60;0.10;;;5.10;1.00;;;;;;5078191;28;20476;-78
2022/04/11 05:38:43;;;;;;;0.50;0.10;;;5.10;1.00;;;;;;5085351;28;20469;-78
2022/04/11 05:41:14;;;;;;;0.63;0.47;;;;;;;;;;5088730;28;20502;-77
2022/04/11 05:43:42;;;;;;;0.57;0.13;;;5.10;1.00;;;;;;5083365;28;21137;-77
2022/04/11 05:46:11;;;;;;;0.50;0.10;;;5.20;1.00;;;;;;5096994;28;20446;-78
2022/04/11 05:48:40;;;;;;;0.60;0.10;;;5.20;1.00;;;;;;5096454;28;20487;-78
2022/04/11 05:51:08;;;;;;;0.60;0.10;;;5.30;1.00;;;;;;5094466;28;20472;-78
2022/04/11 05:53:36;;;;;;;0.60;0.10;;;5.30;1.00;;;;;;5085440;28;20449;-77
2022/04/11 05:56:05;;;;;;;0.63;0.33;;;5.30;1.00;;;;;;5084230;28;20478;-78
2022/04/11 05:58:35;;;;;;;0.60;0.10;;;;;;;;;;5092279;28;20473;-77
2022/04/11 06:01:03;;;;;;;0.60;0.10;;;5.30;1.00;;;;;;5082839;28;20465;-76
2022/04/11 06:03:31;;;;;;;0.60;0.10;;;5.30;1.00;;;;;;5096948;28;20476;-78
2022/04/11 06:05:59;;;;;;;0.60;0.30;;;5.40;1.00;;;;;;5105645;28;20519;-78
2022/04/11 06:08:28;;;;;;;0.60;0.10;;;5.40;1.00;;;;;;5083578;28;20476;-78
2022/04/11 06:10:56;;;;;;;0.50;0.10;;;5.40;1.00;;;;;;5096697;28;20480;-78
2022/04/11 06:13:24;;;;;;;0.60;0.20;;;5.50;1.00;;;;;;5097895;28;20503;-78
2022/04/11 06:15:54;;;;;;;0.50;0.10;;;6.60;1.00;;;;;;5097993;28;20449;-78
2022/04/11 06:18:23;;;;;;;0.60;0.10;;;5.60;1.00;;;;;;5098698;28;20491;-77
2022/04/11 06:20:50;;;;;;;0.50;0.10;;;5.70;1.00;;;;;;5091217;28;20524;-78
2022/04/11 06:23:19;;;;;;;0.60;0.10;;;;;;;;;;5089626;28;20435;-77
2022/04/11 06:25:47;;;;;;;0.60;0.10;;;5.80;1.00;;;;;;5087010;28;20816;-78
2022/04/11 06:28:15;;;;;;;0.60;0.10;;;5.90;1.00;;;;;;5099059;28;20486;-78
2022/04/11 06:30:43;;;;;;;0.60;0.10;;;5.90;1.00;;;;;;5087081;28;20471;-79
2022/04/11 06:33:12;;;;;;;0.60;0.10;;;6.00;1.00;;;;;;5088322;28;20437;-77
2022/04/11 06:35:40;;;;;;;0.60;0.10;;;6.00;1.00;;;;;;5101032;28;20446;-76
2022/04/11 06:38:09;;;;;;;0.60;0.10;;;6.10;1.00;;;;;;5105846;28;20462;-77
2022/04/11 06:40:37;;;;;;;0.60;0.10;;;6.10;1.00;;;;;;5106078;28;20447;-76
2022/04/11 06:43:04;;;;;;;0.60;0.20;;;6.10;1.00;;;;;;5106022;28;20441;-78
2022/04/11 06:45:32;;;;;;;0.70;0.60;;;6.20;1.00;;;;;;5088559;28;20528;-77
2022/04/11 06:48:00;;;;;;;0.60;0.10;;;6.30;1.00;;;;;;5085968;28;20545;-77
2022/04/11 06:50:30;;;;;;;0.60;0.20;;;6.30;1.00;;;;;;5096612;28;20466;-76
2022/04/11 06:52:58;;;;;;;0.60;0.10;;;6.30;1.00;;;;;;5099213;28;20457;-78
2022/04/11 06:55:28;;;;;;;0.60;0.10;;;6.40;1.00;;;;;;5090349;28;20938;-78
2022/04/11 06:57:56;;;;;;;0.60;0.13;;;6.40;1.00;;;;;;5079414;28;20814;-77
2022/04/11 07:00:24;;;;;;;0.60;0.10;;;6.50;1.00;;;;;;5079404;28;20528;-77
2022/04/11 07:02:52;;;;;;;0.60;0.10;;;6.50;1.00;;;;;;5085365;28;20457;-77
2022/04/11 07:05:20;;;;;;;0.60;0.10;;;6.60;1.00;;;;;;5090063;28;20921;-77
2022/04/11 07:07:49;;;;;;;0.60;0.10;;;6.80;1.00;;;;;;5075936;28;20490;-78
2022/04/11 07:10:17;;;;;;;0.60;0.10;;;6.80;1.00;;;;;;5076445;28;20474;-78
2022/04/11 07:12:45;;;;;;;0.60;0.10;;;7.00;1.00;;;;;;5078082;28;20470;-78
2022/04/11 07:15:13;;;;;;;0.60;0.10;;;7.00;1.00;;;;;;5099388;28;20446;-76
2022/04/11 07:17:42;;;;;;;0.60;0.20;;;7.10;1.00;;;;;;5093315;28;20504;-77
2022/04/11 07:20:11;;;;;;;0.60;0.20;;;7.20;1.00;;;;;;5099677;28;20488;-76
2022/04/11 07:22:39;;;;;;;0.60;0.37;;;7.30;1.00;;;;;;5095919;28;20489;-78
2022/04/11 07:25:10;;;;;;;0.60;0.20;;;7.40;1.00;;;;;;5100538;28;20462;-78
2022/04/11 07:27:38;;;;;;;0.60;0.20;;;7.40;1.00;;;;;;5096279;28;21015;-78
2022/04/11 07:30:06;;;;;;;0.60;0.10;;;7.50;1.00;;;;;;5084449;28;20459;-78
2022/04/11 07:32:34;;;;;;;0.60;0.10;;;7.50;1.00;;;;;;5092467;28;20451;-78
2022/04/11 07:35:03;;;;;;;0.60;0.10;;;;;;;;;;5087443;28;20853;-77
2022/04/11 07:37:33;;;;;;;0.60;0.10;;;7.70;1.00;;;;;;5093021;28;20467;-78
2022/04/11 07:40:01;;;;;;;0.80;0.37;;;7.70;1.00;;;;;;5089380;28;20451;-78
2022/04/11 07:42:34;;;;;;;0.60;0.10;;;;;;;;;;5078269;28;20490;-79
2022/04/11 07:45:04;;;;;;;0.60;0.10;;;7.80;1.00;;;;;;5078934;28;20504;-79
2022/04/11 07:47:31;;;;;;;0.60;0.10;;;7.90;1.00;;;;;;5087957;28;20998;-78
2022/04/11 07:50:07;;;;;;;0.60;0.10;;;7.50;1.00;;;;;;5085544;28;20464;-78
2022/04/11 07:52:38;;;;;;;0.60;0.10;;;7.90;1.00;;;;;;5081189;28;20556;-76
2022/04/11 07:55:11;;;;;;;0.60;0.10;;;8.00;1.00;;;;;;5079512;28;20531;-77
2022/04/11 07:57:40;;;;;;;0.60;0.10;;;8.10;1.00;;;;;;5078879;28;20476;-78
2022/04/11 08:00:24;;;;;;;0.60;0.10;;;8.10;1.00;;;;;;5088654;28;20479;-78
2022/04/11 08:02:53;;;;;;;2.33;2.13;;;8.20;1.00;;;;;;5089502;28;20529;-78
2022/04/11 08:05:22;;;;;;;0.60;0.10;;;8.30;1.00;;;;;;5108996;28;20444;-78
2022/04/11 08:07:50;;;;;;;0.60;0.10;;;8.30;1.00;;;;;;5103029;28;20481;-77
2022/04/11 08:10:19;;;;;;;0.60;0.10;;;8.50;1.00;;;;;;5083980;28;20452;-78
2022/04/11 08:12:56;;;;;;;0.60;0.20;;;8.50;1.00;;;;;;5084068;28;20541;-78
2022/04/11 08:15:26;;;;;;;0.60;0.10;;;8.60;1.00;;;;;;5103254;28;20510;-78
2022/04/11 08:17:55;;;;;;;0.60;0.10;;;8.70;99.90;;;;;;5093120;28;20469;-78
2022/04/11 08:20:23;;;;;;;0.60;0.10;;;8.70;99.90;;;;;;5106713;28;20542;-78
2022/04/11 08:22:51;;;;;;;0.60;0.10;;;8.80;99.90;;;;;;5105659;28;20938;-77
2022/04/11 08:25:19;;;;;;;0.60;0.10;;;8.80;99.90;;;;;;5116125;28;20448;-78
2022/04/11 08:27:49;;;;;;;0.60;0.20;;;;;;;;;;5086262;28;20494;-77
2022/04/11 08:30:21;;;;;;;0.60;0.10;;;;;;;;;;5096013;28;20447;-77
2022/04/11 08:32:56;;;;;;;0.60;0.10;;;9.10;99.90;;;;;;5108702;28;20563;-78
2022/04/11 08:35:23;;;;;;;0.60;0.10;;;9.00;99.90;;;;;;5092010;28;20442;-79
2022/04/11 08:37:51;;;;;;;0.60;0.10;;;9.20;99.90;;;;;;5078489;28;20474;-78
2022/04/11 08:40:20;;;;;;;0.60;0.10;;;;;;;;;;5098664;28;20443;-79
2022/04/11 08:42:50;;;;;;;0.80;0.70;;;9.20;99.90;;;;;;5096975;28;20485;-77
2022/04/11 08:45:22;;;;;;;0.60;0.20;;;9.30;99.90;;;;;;5093361;28;20500;-78
2022/04/11 08:48:37;;;;;;;0.60;0.10;;;9.50;99.90;;;;;;5093501;28;20510;-79
2022/04/11 08:51:11;;;;;;;0.70;0.43;;;;;;;;;;5018226;28;20482;-77
2022/04/11 08:53:39;;;;;;;0.60;0.10;;;9.70;99.90;;;;;;5084187;28;20458;-78
2022/04/11 08:56:08;;;;;;;0.60;0.10;;;;;;;;;;5089044;28;20540;-77
2022/04/11 08:58:35;;;;;;;0.80;0.70;;;9.90;99.90;;;;;;5086685;28;20473;-78
2022/04/11 09:01:05;;;;;;;0.60;0.20;;;;;;;;;;5091635;28;20474;-77
2022/04/11 09:03:33;;;;;;;0.70;0.30;;;;;;;;;;5094595;28;20444;-76
2022/04/11 09:06:06;;;;;;;0.60;0.10;;;;;;;;;;5098179;28;20448;-78
2022/04/11 09:08:41;;;;;;;0.60;0.10;;;10.40;99.90;;;;;;5081292;28;20484;-77
2022/04/11 09:11:10;;;;;;;1.03;0.80;;;10.50;99.90;;;;;;5093835;28;20440;-77
2022/04/11 09:13:49;;;;;;;0.60;0.10;;;10.70;99.90;;;;;;5098707;28;20452;-78
2022/04/11 09:16:19;;;;;;;0.60;0.10;;;10.70;99.90;;;;;;5097585;28;20444;-78
2022/04/11 09:18:48;;;;;;;0.60;0.10;;;10.80;99.90;;;;;;5081557;28;20465;-78
2022/04/11 09:21:20;;;;;;;0.60;0.10;;;11.00;99.90;;;;;;5095234;28;20444;-77
2022/04/11 09:23:48;;;;;;;1.27;0.60;;;11.00;99.90;;;;;;5080654;28;20441;-77
2022/04/11 09:26:18;;;;;;;0.60;0.10;;;11.20;99.90;;;;;;5081251;28;20484;-77
2022/04/11 09:29:00;;;;;;;2.63;2.43;;;11.40;99.90;;;;;;5094789;28;20487;-77
2022/04/11 09:31:29;;;;;;;0.60;0.20;;;;;;;;;;5083839;28;20483;-77
2022/04/11 09:33:58;;;;;;;0.60;0.10;;;11.50;99.90;;;;;;5084875;28;20452;-77
2022/04/11 09:36:45;;;;;;;0.60;0.10;;;11.60;99.90;;;;;;5095142;28;20483;-77
2022/04/11 09:39:29;;;;;;;0.60;0.10;;;11.80;99.90;;;;;;5082307;28;20923;-77
2022/04/11 09:42:04;;;;;;;0.60;0.10;;;11.90;99.90;;;;;;5103195;28;20486;-78
2022/04/11 09:44:34;;;;;;;0.60;0.10;;;11.90;99.90;;;;;;5100365;28;20476;-77
2022/04/11 09:47:15;;;;;;;0.60;0.20;;;;;;;;;;5101011;28;20444;-78
2022/04/11 09:49:52;;;;;;;0.60;0.10;;;12.00;99.90;;;;;;5085155;28;20448;-77
2022/04/11 09:52:29;;;;;;;0.60;0.10;;;12.10;99.90;;;;;;5102191;28;20464;-77
2022/04/11 09:55:08;;;;;;;0.60;0.10;;;;;;;;;;5106742;28;20455;-78
2022/04/11 09:57:40;;;;;;;0.60;0.10;;;;;;;;;;5109012;28;20515;-78
2022/04/11 10:00:09;;;;;;;0.60;0.10;;;12.30;99.90;;;;;;5098689;28;20449;-78
2022/04/11 10:02:41;;;;;;;0.60;0.10;;;12.40;99.90;;;;;;5091830;28;20456;-78
2022/04/11 10:05:12;;;;;;;0.60;0.10;;;12.40;99.90;;;;;;5103218;28;20539;-78
2022/04/11 10:07:41;;;;;;;0.60;0.10;;;12.50;99.90;;;;;;5093046;28;20488;-78
2022/04/11 10:10:09;;;;;;;0.60;0.30;;;12.60;99.90;;;;;;5095119;28;20548;-79
2022/04/11 10:12:38;;;;;;;0.60;0.20;;;12.70;99.90;;;;;;5096681;28;20564;-77
2022/04/11 10:15:12;;;;;;;0.60;0.10;;;12.70;99.90;;;;;;5094920;28;20441;-79
2022/04/11 10:17:43;;;;;;;0.60;0.13;;;;;;;;;;5095631;28;20553;-78
2022/04/11 10:20:11;;;;;;;0.60;0.10;;;12.90;99.90;;;;;;5096548;28;20454;-77
2022/04/11 10:22:52;;;;;;;0.60;0.10;;;12.90;99.90;;;;;;5098550;28;20468;-77
2022/04/11 10:25:22;;;;;;;0.60;0.10;;;;;;;;;;5089047;28;20848;-77
2022/04/11 10:28:14;;;;;;;0.70;0.30;;;13.10;99.90;;;;;;5087050;28;20475;-76
2022/04/11 10:30:43;;;;;;;0.60;0.20;;;13.10;99.90;;;;;;5093346;28;20447;-78
2022/04/11 10:33:15;;;;;;;0.60;0.10;;;13.10;99.90;;;;;;5084753;28;20576;-77
2022/04/11 10:35:45;;;;;;;0.60;0.10;;;13.20;99.90;;;;;;5089875;28;20543;-78
2022/04/11 10:38:15;;;;;;;0.60;0.10;;;13.30;99.90;;;;;;5083402;28;20469;-79
2022/04/11 10:40:49;;;;;;;0.60;0.10;;;13.40;99.90;;;;;;5099321;28;20529;-76
2022/04/11 10:43:39;;;;;;;0.60;0.10;;;13.40;99.90;;;;;;5091361;28;20499;-77
2022/04/11 10:46:08;;;;;;;0.60;0.10;;;;;;;;;;5105198;28;20448;-79
2022/04/11 10:49:05;;;;;;;0.60;0.20;;;13.50;99.90;;;;;;5104811;28;20811;-77
2022/04/11 10:51:34;;;;;;;0.60;0.10;;;13.50;99.90;;;;;;5086322;28;20822;-78
2022/04/11 10:54:21;;;;;;;0.60;0.10;;;13.60;99.90;;;;;;5101126;28;20479;-76
2022/04/11 10:57:09;;;;;;;0.60;0.10;;;13.70;99.90;;;;;;5099005;28;20464;-78
2022/04/11 11:00:06;;;;;;;0.60;0.10;;;13.90;99.90;;;;;;5097589;28;20471;-77
2022/04/11 11:03:08;;;;;;;0.60;0.10;;;13.90;99.90;;;;;;5088484;28;20471;-77
2022/04/11 11:05:44;;;;;;;0.60;0.10;;;14.00;99.90;;;;;;5078006;28;20461;-76
2022/04/11 11:08:38;;;;;;;0.60;0.10;;;14.10;99.90;;;;;;5085335;28;20522;-77
2022/04/11 11:11:22;;;;;;;0.60;0.10;;;14.20;99.90;;;;;;5098788;28;20481;-78
2022/04/11 11:13:51;;;;;;;0.60;0.10;;;;;;;;;;5098264;28;20476;-77
2022/04/11 11:16:33;;;;;;;0.73;0.40;;;14.30;99.90;;;;;;5091409;28;20481;-77
2022/04/11 11:19:20;;;;;;;0.60;0.10;;;14.30;99.90;;;;;;5095669;28;20478;-77
2022/04/11 11:22:02;;;;;;;0.60;0.20;;;14.40;99.90;;;;;;5093747;28;20446;-77
2022/04/11 11:24:30;;;;;;;0.60;0.10;;;14.40;99.90;;;;;;5089749;28;20459;-78
2022/04/11 11:27:03;;;;;;;0.60;0.10;;;14.50;99.90;;;;;;5097049;28;20441;-77
2022/04/11 11:29:41;;;;;;;0.60;0.20;;;14.60;99.90;;;;;;5090796;28;20487;-77
2022/04/11 11:32:12;;;;;;;0.60;0.10;;;14.60;99.90;;;;;;5088652;28;20488;-78
2022/04/11 11:34:41;;;;;;;0.70;0.30;;;14.70;99.90;;;;;;5097923;28;20444;-78
2022/04/11 11:37:12;;;;;;;0.60;0.10;;;14.90;99.90;;;;;;5096432;28;20442;-77
2022/04/11 11:39:42;;;;;;;0.60;0.10;;;14.90;99.90;;;;;;5084700;28;20486;-79
2022/04/11 11:42:11;;;;;;;0.60;0.20;;;15.00;99.90;;;;;;5098174;28;20441;-78
2022/04/11 11:44:44;;;;;;;0.60;0.10;;;15.10;99.90;;;;;;5076663;28;20439;-77
2022/04/11 11:47:12;;;;;;;0.60;0.20;;;15.20;99.90;;;;;;5075281;28;20445;-77
2022/04/11 11:49:44;;;;;;;0.60;0.10;;;15.20;99.90;;;;;;5076595;28;20441;-78
2022/04/11 11:52:14;;;;;;;0.60;0.10;;;15.30;99.90;;;;;;5085441;28;20457;-78
2022/04/11 11:54:44;;;;;;;0.60;0.10;;;15.40;99.90;;;;;;5095844;28;20477;-77
2022/04/11 11:57:18;;;;;;;0.60;0.10;;;15.50;99.90;;;;;;5110291;28;20439;-79
2022/04/11 11:59:48;;;;;;;0.60;0.20;;;15.50;99.90;;;;;;5097218;28;20456;-78
2022/04/11 12:05:16;;;;;;;0.60;0.20;;;15.60;99.90;;;;;;5094162;28;20448;-77
2022/04/11 12:07:45;;;;;;;0.60;0.10;;;15.60;99.90;;;;;;5094646;28;20814;-77
2022/04/11 12:10:14;;;;;;;0.60;0.10;;;15.70;99.90;;;;;;5075668;28;20434;-78
2022/04/11 12:12:45;;;;;;;0.60;0.10;;;15.70;99.90;;;;;;5077763;28;20882;-79
2022/04/11 12:15:14;;;;;;;0.60;0.10;;;15.70;99.90;;;;;;5075679;28;20454;-77
2022/04/11 12:17:45;;;;;;;0.60;0.20;;;15.80;99.90;;;;;;5076929;28;20469;-78
2022/04/11 12:20:16;;;;;;;0.60;0.10;;;15.70;99.90;;;;;;5091754;28;20986;-76
2022/04/11 12:23:04;;;;;;;0.80;0.53;;;15.70;99.90;;;;;;5107078;28;20546;-78
2022/04/11 12:25:33;;;;;;;0.60;0.13;;;15.80;99.90;;;;;;5087311;28;20469;-77
2022/04/11 12:28:18;;;;;;;0.60;0.10;;;15.80;99.90;;;;;;5102865;28;20483;-77
2022/04/11 12:30:48;;;;;;;0.60;0.10;;;15.90;99.90;;;;;;5077863;28;20442;-77
2022/04/11 12:33:42;;;;;;;0.60;0.10;;;15.90;99.90;;;;;;5108086;28;21017;-78
2022/04/11 12:36:16;;;;;;;0.60;0.10;;;16.00;99.90;;;;;;5124198;28;20452;-77
2022/04/11 12:38:50;;;;;;;0.60;0.10;;;16.00;99.90;;;;;;5101343;28;20469;-78
2022/04/11 12:41:37;;;;;;;0.60;0.10;;;16.10;99.90;;;;;;5075157;28;20541;-77
2022/04/11 12:44:08;;;;;;;0.60;0.10;;;16.00;99.90;;;;;;5074537;28;20465;-77
2022/04/11 12:46:38;;;;;;;0.60;0.10;;;16.10;99.90;;;;;;5075721;28;20441;-76
2022/04/11 12:49:07;;;;;;;0.60;0.10;;;16.10;99.90;;;;;;5090718;28;20504;-77
2022/04/11 12:51:35;;;;;;;0.60;0.20;;;16.20;99.90;;;;;;5091636;28;20465;-78
2022/04/11 12:54:12;;;;;;;0.60;0.20;;;16.10;99.90;;;;;;5075045;28;20515;-77
2022/04/11 12:56:46;;;;;;;0.60;0.10;;;16.10;99.90;;;;;;5074343;28;20939;-78
2022/04/11 12:59:29;;;;;;;0.60;0.10;;;15.90;99.90;;;;;;5077113;28;20540;-78
2022/04/11 13:02:05;;;;;;;0.60;0.10;;;15.90;99.90;;;;;;5089589;28;20513;-78
2022/04/11 13:04:34;;;;;;;0.60;0.10;;;15.90;99.90;;;;;;5083567;28;20438;-78
2022/04/11 13:07:02;;;;;;;0.60;0.10;;;15.90;99.90;;;;;;5076658;28;20453;-78
2022/04/11 13:09:33;;;;;;;0.60;0.10;;;16.00;99.90;;;;;;5082445;28;20476;-78
2022/04/11 13:12:01;;;;;;;0.60;0.10;;;16.00;99.90;;;;;;5076693;28;20425;-78
2022/04/11 13:14:33;;;;;;;0.63;0.27;;;16.00;99.90;;;;;;5076278;28;20880;-78
2022/04/11 13:19:47;;;;;;;0.60;0.10;;;16.10;99.90;;;;;;5075316;28;20445;-77
2022/04/11 13:22:15;;;;;;;0.60;0.10;;;16.10;99.90;;;;;;5075276;28;20445;-77
2022/04/11 13:24:44;;;;;;;0.70;0.20;;;16.10;99.90;;;;;;5073662;28;20441;-78
2022/04/11 13:27:12;;;;;;;0.60;0.20;;;16.10;99.90;;;;;;5104075;28;20447;-77
2022/04/11 13:29:40;;;;;;;0.60;0.10;;;16.10;99.90;;;;;;5096199;28;20446;-79
2022/04/11 13:32:10;;;;;;;0.60;0.10;;;16.00;99.90;;;;;;5075815;28;20541;-76
2022/04/11 13:34:38;;;;;;;0.60;0.10;;;16.10;99.90;;;;;;5074914;28;20512;-78
2022/04/11 13:37:06;;;;;;;0.60;0.10;;;;;;;;;;5074202;28;20434;-78